Time;durP1;ratioP1;P1;durP2;ratioP2;P2;SDS_P1;SDS_P2;PMS_P1;PMS_P2;Temp;Humidity;BMP_temperature;BMP_pressure;BME280_temperature;BME280_humidity;BME280_pressure;Samples;Min_cycle;Max_cycle;Signal;HPM_P1;HPM_P2
2021/11/28 00:02:55;;;;;;;1.71;0.90;;;;;;;2.59;88.60;97193.88;1928887;81;22593;-76
2021/11/28 00:06:02;;;;;;;0.94;0.86;;;;;;;2.57;88.83;97195.63;1931618;84;20620;-76
2021/11/28 00:12:42;;;;;;;2.06;1.00;;;;;;;2.59;88.97;97197.28;1931238;84;20403;-76
2021/11/28 00:15:44;;;;;;;2.99;1.20;;;;;;;2.54;89.09;97201.63;1930766;81;21103;-76
2021/11/28 00:18:47;;;;;;;2.29;1.36;;;;;;;2.52;89.54;97198.22;1930927;84;20281;-76
2021/11/28 00:21:50;;;;;;;1.77;1.14;;;;;;;2.51;89.62;97190.50;1930089;84;20353;-76
2021/11/28 00:24:52;;;;;;;3.58;1.21;;;;;;;2.51;89.66;97182.84;1930382;84;21150;-76
2021/11/28 00:27:55;;;;;;;2.76;1.10;;;;;;;2.51;89.57;97186.25;1930673;84;20377;-76
2021/11/28 00:30:58;;;;;;;2.03;1.45;;;;;;;2.52;89.57;97184.56;1931950;81;26538;-76
2021/11/28 04:17:20;;;;;;;1.67;1.16;;;;;;;2.39;89.82;97247.81;1930797;73;20879;-76
2021/11/28 04:20:38;;;;;;;2.20;1.33;;;;;;;2.34;89.89;97250.41;1928058;84;20427;-76
2021/11/28 04:23:42;;;;;;;2.44;1.23;;;;;;;2.35;90.09;97241.03;1927963;84;20381;-75
2021/11/28 04:26:46;;;;;;;2.45;1.39;;;;;;;2.33;90.08;97243.56;1928369;84;20367;-76
2021/11/28 04:29:51;;;;;;;2.60;1.84;;;;;;;2.33;90.13;97251.25;1929157;84;20403;-76
2021/11/28 04:32:56;;;;;;;3.53;1.81;;;;;;;2.24;90.00;97243.66;1922335;81;167180;-76
2021/11/28 04:36:00;;;;;;;2.79;1.54;;;;;;;2.24;90.42;97243.66;1928934;84;20742;-76
2021/11/28 04:39:04;;;;;;;1.88;1.27;;;;;;;2.26;90.60;97246.19;1928639;84;20398;-75
2021/11/28 04:42:11;;;;;;;2.66;1.59;;;;;;;2.22;90.58;97235.13;1931480;84;20325;-76
2021/11/28 04:45:15;;;;;;;2.96;1.69;;;;;;;2.19;90.77;97235.16;1923399;84;20926;-76
2021/11/28 04:48:20;;;;;;;2.76;1.50;;;;;;;2.23;91.02;97241.09;1928331;84;20363;-76
2021/11/28 04:51:24;;;;;;;1.46;1.34;;;;;;;2.25;91.16;97242.78;1928485;84;20919;-77
2021/11/28 04:54:28;;;;;;;2.35;1.40;;;;;;;2.23;91.18;97241.94;1928923;84;20352;-77
2021/11/28 04:57:32;;;;;;;2.30;1.39;;;;;;;2.17;91.24;97244.56;1921440;84;20398;-77
2021/11/28 05:00:38;;;;;;;2.51;1.41;;;;;;;2.21;91.51;97240.25;1917309;84;20375;-77
2021/11/28 05:03:55;;;;;;;3.65;1.40;;;;;;;2.21;91.64;97233.44;1929204;84;20360;-77
2021/11/28 05:07:00;;;;;;;2.33;1.31;;;;;;;2.19;91.58;97234.31;1921475;84;20424;-76
2021/11/28 05:10:09;;;;;;;1.41;1.31;;;;;;;2.18;91.82;97230.91;1928824;84;20871;-76
2021/11/28 05:13:12;;;;;;;1.49;1.39;;;;;;;2.16;91.73;97232.63;1929342;84;20891;-76
2021/11/28 05:16:19;;;;;;;2.16;1.48;;;;;;;2.20;91.96;97233.44;1926924;84;20359;-76
2021/11/28 05:19:26;;;;;;;2.76;2.36;;;;;;;2.18;91.74;97236.00;1922108;84;20480;-76
2021/11/28 05:22:32;;;;;;;2.16;1.40;;;;;;;2.15;91.66;97235.16;1924753;84;20183;-76
2021/11/28 05:25:36;;;;;;;2.10;1.50;;;;;;;2.07;91.51;97230.94;1929112;84;20366;-76
2021/11/28 05:28:43;;;;;;;1.86;1.24;;;;;;;2.10;91.80;97237.75;1921254;84;20461;-76
2021/11/28 05:31:46;;;;;;;2.56;1.41;;;;;;;2.09;91.71;97248.84;1923494;81;136482;-76
2021/11/28 05:34:54;;;;;;;2.04;1.40;;;;;;;2.05;91.76;97244.63;1928749;84;20424;-76
2021/11/28 05:38:02;;;;;;;1.73;1.35;;;;;;;2.08;91.89;97247.16;1921912;84;20372;-76
2021/11/28 05:41:10;;;;;;;2.47;1.16;;;;;;;2.06;91.76;97241.19;1925200;84;20399;-76
2021/11/28 05:44:13;;;;;;;2.38;1.39;;;;;;;2.08;91.94;97249.72;1921446;84;20212;-76
2021/11/28 05:47:23;;;;;;;2.38;1.20;;;;;;;2.10;92.07;97248.00;1926868;84;20379;-77
2021/11/28 05:50:39;;;;;;;2.96;1.30;;;;;;;2.09;92.01;97246.28;1922057;84;20349;-77
2021/11/28 05:53:46;;;;;;;2.85;1.42;;;;;;;2.07;92.01;97241.19;1928549;84;20997;-76
2021/11/28 05:56:53;;;;;;;2.06;1.81;;;;;;;2.11;92.02;97245.41;1928716;84;20381;-77
2021/11/28 06:00:00;;;;;;;2.75;1.40;;;;;;;2.10;92.05;97245.44;1924925;84;21477;-77
2021/11/28 06:03:10;;;;;;;1.61;1.20;;;;;;;2.12;92.21;97246.25;1917185;84;20435;-76
2021/11/28 06:06:14;;;;;;;2.67;1.73;;;;;;;2.13;92.49;97246.25;1924124;84;20250;-77
2021/11/28 06:09:20;;;;;;;1.59;1.49;;;;;;;2.16;92.50;97236.88;1919834;84;20892;-76
2021/11/28 06:12:25;;;;;;;2.90;2.05;;;;;;;2.13;92.26;97241.13;1923382;84;20326;-77
2021/11/28 06:15:29;;;;;;;4.46;2.13;;;;;;;2.13;92.24;97250.53;1912946;84;968275;-76
2021/11/28 06:18:33;;;;;;;2.64;1.94;;;;;;;2.10;92.16;97253.09;1923219;84;20343;-76
2021/11/28 06:22:21;;;;;;;4.66;2.75;;;;;;;2.07;92.00;97255.69;1923338;84;20355;-77
2021/11/28 06:25:30;;;;;;;4.15;3.09;;;;;;;2.07;92.23;97259.09;1923433;84;20368;-76
2021/11/28 06:28:55;;;;;;;4.56;3.38;;;;;;;2.07;92.17;97253.97;1923196;84;20791;-76
2021/11/28 06:32:14;;;;;;;4.74;3.10;;;;;;;2.05;92.17;97249.72;1921227;84;20536;-76
2021/11/28 06:35:17;;;;;;;3.54;3.24;;;;;;;2.02;92.21;97252.31;1923696;84;20968;-75
2021/11/28 06:38:22;;;;;;;4.41;3.31;;;;;;;1.99;92.01;97249.78;1923047;84;20338;-75
2021/11/28 06:41:27;;;;;;;3.66;3.06;;;;;;;1.94;92.01;97259.16;1922673;84;20370;-76
2021/11/28 06:44:31;;;;;;;1.85;1.70;;;;;;;1.88;91.82;97262.59;1916110;84;20356;-76
2021/11/28 06:47:41;;;;;;;3.31;2.05;;;;;;;1.77;91.50;97257.53;1914790;84;20368;-76
2021/11/28 06:50:57;;;;;;;2.13;1.61;;;;;;;1.74;91.59;97260.09;1923890;84;20277;-76
2021/11/28 06:54:07;;;;;;;2.03;1.92;;;;;;;1.72;91.68;97266.94;1923324;84;20323;-76
2021/11/28 06:57:14;;;;;;;1.69;1.59;;;;;;;1.66;91.73;97266.97;1914799;84;20515;-76
2021/11/28 07:00:19;;;;;;;2.54;1.75;;;;;;;1.68;91.79;97265.25;1911877;84;998602;-76
2021/11/28 07:03:21;;;;;;;1.83;1.56;;;;;;;1.63;91.79;97264.44;1913896;84;20362;-76
2021/11/28 07:06:26;;;;;;;1.61;1.51;;;;;;;1.60;91.74;97261.84;1923544;84;20358;-76
2021/11/28 07:09:40;;;;;;;3.09;2.00;;;;;;;1.56;91.84;97262.72;1924293;84;21059;-75
2021/11/28 07:12:47;;;;;;;1.61;1.41;;;;;;;1.54;92.10;97267.00;1923693;84;20346;-76
2021/11/28 07:15:49;;;;;;;2.31;1.81;;;;;;;1.57;92.31;97276.38;1922274;81;20414;-76
2021/11/28 07:18:55;;;;;;;1.55;1.45;;;;;;;1.58;92.59;97276.34;1928856;84;20354;-77
2021/11/28 07:22:02;;;;;;;3.14;1.90;;;;;;;1.62;92.90;97277.22;1930291;84;20333;-78
2021/11/28 07:25:24;;;;;;;1.96;1.86;;;;;;;1.70;92.97;97280.59;1926627;84;20237;-76
2021/11/28 07:28:27;;;;;;;2.97;2.09;;;;;;;1.77;92.99;97283.09;1927976;84;20886;-76
2021/11/28 07:31:31;;;;;;;1.67;1.50;;;;;;;1.80;93.01;97277.16;1924947;84;20372;-76
2021/11/28 07:34:34;;;;;;;2.40;1.46;;;;;;;1.83;92.80;97289.09;1923108;84;20423;-76
2021/11/28 07:37:40;;;;;;;1.77;1.67;;;;;;;1.78;92.74;97278.84;1920809;84;20810;-77
2021/11/28 07:44:57;;;;;;;1.45;1.31;;;;;;;1.80;92.62;97267.78;1932152;73;20378;-78
2021/11/28 07:48:07;;;;;;;2.39;1.30;;;;;;;1.79;92.67;97273.72;1912119;84;870805;-78
2021/11/28 07:51:16;;;;;;;1.61;1.51;;;;;;;1.79;92.74;97285.66;1923490;84;20456;-78
2021/11/28 07:54:38;;;;;;;2.64;1.80;;;;;;;1.79;92.70;97294.19;1921344;84;20298;-78
2021/11/28 07:57:53;;;;;;;1.84;1.60;;;;;;;1.79;92.87;97293.34;1921961;84;20213;-78
2021/11/28 08:01:11;;;;;;;2.06;1.41;;;;;;;1.84;92.89;97296.75;1920064;81;183786;-78
2021/11/28 08:04:40;;;;;;;1.90;1.80;;;;;;;1.88;92.73;97295.03;1926211;84;20335;-78
2021/11/28 08:07:50;;;;;;;1.59;1.49;;;;;;;1.85;92.56;97300.16;1925608;84;20246;-78
2021/11/28 08:11:09;;;;;;;1.96;1.81;;;;;;;1.79;92.48;97299.28;1926003;84;20949;-78
2021/11/28 08:14:28;;;;;;;2.42;1.80;;;;;;;1.84;92.57;97303.56;1926911;84;20411;-79
2021/11/28 08:17:38;;;;;;;1.77;1.67;;;;;;;1.90;92.62;97301.81;1927678;84;20226;-79
2021/11/28 08:20:59;;;;;;;2.53;2.33;;;;;;;1.96;92.73;97306.91;1927853;84;20359;-80
2021/11/28 08:24:06;;;;;;;;;;;;;;;2.05;92.85;97312.00;1927052;84;20358;-79
2021/11/28 08:27:09;;;;;;;2.13;1.92;;;;;;;2.18;93.05;97317.94;1925505;84;20096;-76
2021/11/28 08:30:16;;;;;;;2.94;2.74;;;;;;;2.25;93.00;97317.03;1923575;84;20458;-77
2021/11/28 08:33:18;;;;;;;3.58;3.09;;;;;;;2.32;93.00;97323.81;1924424;82;30727;-76
2021/11/28 08:36:21;;;;;;;2.76;2.56;;;;;;;2.39;93.05;97317.81;1925018;84;20423;-79
2021/11/28 08:39:24;;;;;;;2.76;2.55;;;;;;;2.39;92.66;97315.25;1929743;84;21726;-78
2021/11/28 08:42:36;;;;;;;3.08;2.78;;;;;;;2.45;92.43;97322.03;1925853;84;20391;-78
2021/11/28 08:46:33;;;;;;;3.10;2.80;;;;;;;2.51;92.33;97329.69;1522245;73;51050474;-80
2021/11/28 08:50:15;;;;;;;2.10;1.95;;;;;;;2.50;91.96;97327.97;1930312;84;21074;-78
2021/11/28 08:53:43;;;;;;;2.61;2.41;;;;;;;2.58;91.96;97336.47;1930106;84;21449;-78
2021/11/28 08:57:02;;;;;;;2.64;2.39;;;;;;;2.62;91.78;97339.88;1928560;84;20345;-77
2021/11/28 09:00:18;;;;;;;2.70;2.50;;;;;;;2.58;91.65;97340.75;1928586;84;20323;-78
2021/11/28 09:03:28;;;;;;;2.74;2.54;;;;;;;2.59;91.76;97343.31;1929995;84;20365;-78
2021/11/28 09:06:56;;;;;;;2.49;2.29;;;;;;;2.65;91.75;97342.41;1928782;84;20373;-78
2021/11/28 09:10:37;;;;;;;2.70;2.50;;;;;;;2.64;91.51;97345.84;1928823;84;20369;-77
2021/11/28 09:14:04;;;;;;;2.90;2.70;;;;;;;2.61;90.98;97346.72;1934007;84;20977;-79
2021/11/28 09:17:23;;;;;;;2.85;2.65;;;;;;;2.60;91.00;97336.47;1930231;84;24641;-78
2021/11/28 09:20:26;;;;;;;2.45;2.31;;;;;;;2.67;91.21;97333.84;1931130;84;20441;-78
2021/11/28 09:26:51;;;;;;;3.34;3.04;;;;;;;2.79;91.56;97343.19;1931108;84;20438;-79
2021/11/28 09:29:54;;;;;;;3.30;3.00;;;;;;;2.87;91.58;97345.66;1930413;84;20333;-78
2021/11/28 09:32:59;;;;;;;2.94;2.74;;;;;;;2.89;91.46;97344.84;1925537;81;21317;-78
2021/11/28 09:36:03;;;;;;;2.49;2.25;;;;;;;2.88;91.28;97338.00;1929969;84;20402;-78
2021/11/28 09:39:06;;;;;;;3.66;3.31;;;;;;;2.87;91.17;97346.56;1930506;84;20361;-78
2021/11/28 09:42:34;;;;;;;2.99;2.72;;;;;;;2.92;91.29;97347.38;1929937;84;20450;-78
2021/11/28 09:45:38;;;;;;;3.06;2.61;;;;;;;2.95;91.19;97347.34;1929766;81;20645;-78
2021/11/28 09:48:45;;;;;;;2.58;2.38;;;;;;;2.98;91.11;97352.44;1930345;84;20207;-78
2021/11/28 09:51:49;;;;;;;2.64;2.44;;;;;;;3.01;90.94;97356.69;1929512;84;20329;-78
2021/11/28 09:54:56;;;;;;;2.04;1.92;;;;;;;2.99;90.72;97354.13;1930377;84;20442;-78
2021/11/28 09:58:00;;;;;;;2.16;2.06;;;;;;;3.01;90.63;97351.56;1930080;84;20346;-78
2021/11/28 10:01:03;;;;;;;2.61;2.08;;;;;;;3.04;90.53;97360.06;1928036;81;26010;-78
2021/11/28 10:04:07;;;;;;;2.16;1.98;;;;;;;3.08;90.42;97360.06;1930584;84;20378;-77
2021/11/28 10:07:14;;;;;;;2.05;1.95;;;;;;;3.04;89.96;97357.50;1926072;84;20841;-78
2021/11/28 10:10:19;;;;;;;2.53;2.29;;;;;;;3.05;89.87;97353.22;1928539;84;20341;-78
2021/11/28 10:13:22;;;;;;;2.15;2.05;;;;;;;3.04;89.70;97352.38;1927937;84;20945;-78
2021/11/28 10:16:24;;;;;;;2.40;2.20;;;;;;;3.07;89.76;97351.53;1925504;82;32086;-78
2021/11/28 10:19:29;;;;;;;2.15;2.00;;;;;;;3.04;89.58;97352.38;1928420;84;21173;-78
2021/11/28 10:22:31;;;;;;;2.33;2.14;;;;;;;3.04;89.56;97351.53;1928694;84;20454;-78
2021/11/28 10:25:34;;;;;;;2.08;1.98;;;;;;;3.08;89.73;97344.69;1928221;84;20404;-78
2021/11/28 10:29:02;;;;;;;2.70;2.50;;;;;;;3.08;89.56;97337.00;1929180;84;20865;-78
2021/11/28 10:32:08;;;;;;;3.25;2.26;;;;;;;3.10;89.53;97336.13;1926274;82;23463;-78
2021/11/28 10:35:12;;;;;;;2.09;1.99;;;;;;;3.15;89.47;97333.50;1928975;84;20365;-78
2021/11/28 10:38:15;;;;;;;1.98;1.88;;;;;;;3.21;89.40;97334.28;1928186;84;20365;-78
2021/11/28 10:41:23;;;;;;;2.42;2.31;;;;;;;3.21;89.15;97334.28;1928525;84;20341;-78
2021/11/28 10:44:26;;;;;;;2.34;2.21;;;;;;;3.19;88.61;97337.75;1928343;84;20365;-77
2021/11/28 10:47:37;;;;;;;2.60;2.40;;;;;;;3.13;88.48;97335.25;1927461;81;23506;-78
2021/11/28 10:50:51;;;;;;;2.29;2.19;;;;;;;3.12;88.17;97333.53;1927719;84;20742;-77
2021/11/28 10:54:36;;;;;;;2.03;1.92;;;;;;;3.14;88.33;97342.06;1926142;84;20342;-78
2021/11/28 10:58:13;;;;;;;2.38;2.17;;;;;;;3.18;88.40;97339.47;1927312;84;20207;-78
2021/11/28 11:01:31;;;;;;;2.26;1.99;;;;;;;3.19;88.54;97333.47;1908214;84;996199;-77
2021/11/28 11:04:40;;;;;;;2.08;1.88;;;;;;;3.19;88.46;97330.06;1928898;84;21219;-77
2021/11/28 11:08:04;;;;;;;2.31;2.11;;;;;;;3.19;88.55;97327.50;1928097;84;20340;-78
2021/11/28 11:11:25;;;;;;;2.09;1.89;;;;;;;3.19;88.64;97332.63;1927892;84;20481;-78
2021/11/28 11:14:44;;;;;;;2.39;2.13;;;;;;;3.20;88.71;97334.31;1920694;84;20374;-77
2021/11/28 11:18:15;;;;;;;2.72;2.53;;;;;;;3.23;88.75;97334.28;1928725;84;20354;-77
2021/11/28 11:21:31;;;;;;;3.21;2.90;;;;;;;3.27;89.05;97330.84;1927885;84;20727;-77
2021/11/28 11:24:37;;;;;;;4.04;3.65;;;;;;;3.33;89.27;97336.78;1927596;84;20861;-76
2021/11/28 11:27:44;;;;;;;3.78;3.22;;;;;;;3.37;89.61;97340.16;1927372;84;20349;-76
2021/11/28 11:31:04;;;;;;;3.03;2.75;;;;;;;3.41;89.61;97341.84;1911555;84;991366;-77
2021/11/28 11:34:24;;;;;;;2.65;2.45;;;;;;;3.41;89.38;97334.16;1923861;84;20898;-77
2021/11/28 11:37:38;;;;;;;3.54;2.80;;;;;;;3.44;89.52;97334.13;1923765;84;20926;-76
2021/11/28 11:40:54;;;;;;;3.10;2.90;;;;;;;3.45;89.42;97332.41;1923007;84;20373;-76
2021/11/28 11:44:04;;;;;;;2.81;2.56;;;;;;;3.48;89.45;97335.78;1927735;84;20406;-76
2021/11/28 11:47:15;;;;;;;2.70;2.34;;;;;;;3.51;89.39;97333.19;1926412;84;20365;-77
2021/11/28 11:50:22;;;;;;;2.65;2.45;;;;;;;3.53;89.26;97339.13;1927377;84;20874;-76
2021/11/28 11:53:25;;;;;;;2.03;1.92;;;;;;;3.51;89.23;97348.56;1927413;84;20374;-77
2021/11/28 11:56:30;;;;;;;2.58;2.40;;;;;;;3.49;89.23;97347.75;1928759;84;20318;-77
2021/11/28 12:00:12;;;;;;;3.95;2.39;;;;;;;3.44;88.96;97346.09;1923999;84;21277;-77
2021/11/28 12:03:23;;;;;;;2.42;2.33;;;;;;;3.40;88.70;97345.25;1927604;84;20589;-77
2021/11/28 12:06:54;;;;;;;2.03;1.92;;;;;;;3.36;88.42;97351.28;1917738;84;20349;-77
2021/11/28 12:10:38;;;;;;;2.70;2.51;;;;;;;3.31;88.40;97350.47;1927605;84;20365;-77
2021/11/28 12:13:46;;;;;;;2.61;2.14;;;;;;;3.25;88.60;97356.50;1916989;84;20379;-77
2021/11/28 12:17:05;;;;;;;2.51;2.41;;;;;;;3.20;88.47;97345.41;1914423;84;994803;-78
2021/11/28 12:20:42;;;;;;;1.88;1.74;;;;;;;3.17;88.77;97347.16;1922023;84;21206;-78
2021/11/28 12:24:28;;;;;;;2.06;1.89;;;;;;;3.18;89.32;97344.59;1926108;84;20367;-78
2021/11/28 12:27:42;;;;;;;1.79;1.69;;;;;;;3.20;89.51;97344.56;1922863;84;20339;-77
2021/11/28 12:31:29;;;;;;;1.75;1.41;;;;;;;3.23;89.82;97348.00;1912693;85;20970;-77
2021/11/28 12:34:54;;;;;;;1.69;1.59;;;;;;;3.21;89.67;97349.69;1904361;85;20349;-77
2021/11/28 12:38:38;;;;;;;1.80;1.66;;;;;;;3.22;89.68;97353.94;1913189;85;20513;-77
2021/11/28 12:42:13;;;;;;;1.50;1.40;;;;;;;3.25;89.73;97353.09;1912252;85;20365;-77
2021/11/28 12:45:40;;;;;;;2.07;1.89;;;;;;;3.29;90.00;97347.91;1895291;85;980752;-77
2021/11/28 12:49:14;;;;;;;1.84;1.74;;;;;;;3.32;89.85;97347.03;1910309;85;20312;-77
2021/11/28 12:52:47;;;;;;;1.41;1.31;;;;;;;3.33;89.75;97347.03;1911707;85;20428;-77
2021/11/28 12:56:21;;;;;;;1.70;1.60;;;;;;;3.36;89.57;97351.28;1929949;74;20407;-78
2021/11/28 12:59:30;;;;;;;2.25;1.67;;;;;;;3.29;89.48;97353.06;1929441;84;20342;-78
2021/11/28 13:02:43;;;;;;;2.61;1.63;;;;;;;3.30;89.68;97357.31;1921423;84;675232;-78
2021/11/28 13:05:51;;;;;;;;;;;;;;;3.29;89.76;97353.06;1929748;84;20373;-78
2021/11/28 13:09:39;;;;;;;1.88;1.77;;;;;;;3.33;89.95;97353.88;1930494;84;20109;-78
2021/11/28 13:12:55;;;;;;;2.33;2.17;;;;;;;3.38;90.04;97353.81;1928715;84;21089;-80
2021/11/28 13:16:15;;;;;;;1.99;1.82;;;;;;;3.41;90.22;97357.25;1926389;82;70618;-78
2021/11/28 13:19:36;;;;;;;2.64;2.44;;;;;;;3.38;90.11;97356.38;1929918;84;20218;-78
2021/11/28 13:23:29;;;;;;;3.70;3.36;;;;;;;3.37;90.28;97350.41;1928294;84;20409;-79
2021/11/28 13:26:55;;;;;;;4.22;3.83;;;;;;;3.36;90.28;97360.69;1924254;84;20341;-78
2021/11/28 13:30:30;;;;;;;3.88;3.51;;;;;;;3.42;90.22;97364.06;1926333;84;20893;-78
2021/11/28 13:34:02;;;;;;;4.20;3.81;;;;;;;3.44;90.13;97366.63;1924195;84;20364;-78
2021/11/28 13:37:22;;;;;;;4.16;3.39;;;;;;;3.42;90.07;97366.63;1927620;84;20949;-78
2021/11/28 13:40:44;;;;;;;4.32;3.86;;;;;;;3.43;89.99;97362.34;1919051;84;20479;-78
2021/11/28 13:44:29;;;;;;;4.38;3.74;;;;;;;3.39;90.00;97364.06;1917206;84;20185;-78
2021/11/28 13:48:01;;;;;;;4.45;3.95;;;;;;;3.33;89.83;97374.38;1915459;84;20553;-79
2021/11/28 13:51:07;;;;;;;4.49;4.11;;;;;;;3.31;90.26;97379.53;1907924;84;20448;-78
2021/11/28 13:54:38;;;;;;;4.75;4.18;;;;;;;3.31;90.34;97376.13;1915585;84;20395;-77
2021/11/28 13:57:40;;;;;;;5.35;3.99;;;;;;;3.30;90.41;97379.53;1914971;84;20444;-77
2021/11/28 14:00:43;;;;;;;5.24;4.70;;;;;;;3.32;90.54;97377.81;1913885;82;24560;-77
2021/11/28 14:03:46;;;;;;;5.41;4.81;;;;;;;3.27;90.43;97379.56;1916248;84;20841;-77
2021/11/28 14:06:49;;;;;;;6.54;5.16;;;;;;;3.27;90.75;97389.84;1916856;84;20546;-77
2021/11/28 14:09:55;;;;;;;6.07;5.35;;;;;;;3.28;90.72;97384.69;1918423;84;20359;-78
2021/11/28 14:12:59;;;;;;;5.63;4.81;;;;;;;3.26;90.62;97389.00;1915920;84;20351;-76
2021/11/28 14:16:02;;;;;;;6.75;6.03;;;;;;;3.24;90.47;97389.88;1915898;84;20376;-78
2021/11/28 14:19:37;;;;;;;5.24;4.75;;;;;;;3.27;90.67;97389.84;1921271;84;20892;-77
2021/11/28 14:23:06;;;;;;;6.53;5.93;;;;;;;3.28;90.65;97396.66;1919237;84;20370;-78
2021/11/28 14:26:33;;;;;;;5.50;5.00;;;;;;;3.32;90.67;97403.47;1926365;84;20290;-77
2021/11/28 14:30:02;;;;;;;5.04;4.57;;;;;;;3.31;90.44;97402.63;1928272;84;20471;-78
2021/11/28 14:33:19;;;;;;;4.54;4.15;;;;;;;3.29;90.46;97400.94;1914413;84;22696;-77
2021/11/28 14:36:47;;;;;;;4.07;3.67;;;;;;;3.30;90.36;97413.75;1914068;85;20336;-78
2021/11/28 14:40:10;;;;;;;3.70;3.41;;;;;;;3.25;90.21;97406.94;1905014;85;20360;-78
2021/11/28 14:43:51;;;;;;;4.21;3.61;;;;;;;3.24;90.32;97400.13;1904367;85;20371;-78
2021/11/28 14:47:01;;;;;;;3.75;3.45;;;;;;;3.23;90.29;97406.97;1903236;85;20810;-77
2021/11/28 14:50:11;;;;;;;3.65;3.34;;;;;;;3.22;90.47;97419.78;1905034;85;20363;-78
2021/11/28 14:53:28;;;;;;;3.89;3.39;;;;;;;3.16;90.53;97424.94;1904057;85;21103;-77
2021/11/28 14:56:37;;;;;;;3.49;3.29;;;;;;;3.16;90.77;97420.69;1898289;85;20436;-77
2021/11/28 14:59:52;;;;;;;3.35;3.09;;;;;;;3.15;90.88;97416.41;1902877;85;20219;-76
2021/11/28 15:03:15;;;;;;;3.72;3.42;;;;;;;3.13;90.94;97414.72;1906575;82;23697;-78
2021/11/28 15:06:18;;;;;;;3.72;3.42;;;;;;;3.10;90.92;97419.88;1915324;84;20360;-77
2021/11/28 15:09:48;;;;;;;3.75;3.44;;;;;;;3.07;91.26;97425.03;1915001;84;20363;-77
2021/11/28 15:12:51;;;;;;;3.86;3.55;;;;;;;3.04;91.35;97431.00;1914136;84;20897;-76
2021/11/28 15:15:56;;;;;;;3.36;3.16;;;;;;;2.99;91.42;97425.06;1914452;84;20363;-77
2021/11/28 15:18:59;;;;;;;3.95;3.65;;;;;;;2.97;91.58;97437.88;1916584;84;20335;-77
2021/11/28 15:22:02;;;;;;;4.46;3.79;;;;;;;2.99;91.89;97437.88;1907441;84;21007;-77
2021/11/28 15:25:07;;;;;;;3.86;3.54;;;;;;;3.01;92.20;97436.16;1916542;84;20393;-77
2021/11/28 15:28:11;;;;;;;3.70;3.40;;;;;;;3.05;92.27;97442.97;1915989;84;20359;-77
2021/11/28 15:31:13;;;;;;;3.51;3.28;;;;;;;3.02;92.09;97442.97;1917173;82;22306;-77
2021/11/28 15:34:17;;;;;;;3.74;3.39;;;;;;;3.04;92.22;97439.53;1912253;84;20364;-77
2021/11/28 15:37:19;;;;;;;3.63;3.03;;;;;;;3.06;92.26;97441.28;1922646;84;20915;-76
2021/11/28 15:40:27;;;;;;;3.67;3.38;;;;;;;3.02;92.18;97448.97;1926199;84;20919;-76
2021/11/28 15:43:29;;;;;;;3.45;3.17;;;;;;;2.98;91.99;97447.28;1927101;84;20349;-76
2021/11/28 15:46:33;;;;;;;4.50;3.19;;;;;;;2.92;92.09;97465.28;1925663;81;32149;-76
2021/11/28 15:49:36;;;;;;;4.25;3.40;;;;;;;2.91;92.19;97457.59;1927043;84;20342;-77
2021/11/28 15:52:40;;;;;;;4.22;3.83;;;;;;;2.89;92.40;97459.31;1927929;84;20427;-77
2021/11/28 15:55:44;;;;;;;3.75;3.45;;;;;;;2.85;92.44;97468.69;1924346;84;20353;-77
2021/11/28 15:58:46;;;;;;;3.80;3.50;;;;;;;2.84;92.68;97466.16;1926592;84;20390;-76
2021/11/28 16:01:50;;;;;;;3.63;3.36;;;;;;;2.82;92.80;97467.88;1913700;84;1230232;-77
2021/11/28 16:04:53;;;;;;;3.75;3.45;;;;;;;2.79;92.84;97475.59;1922608;84;20199;-77
2021/11/28 16:07:56;;;;;;;3.35;3.05;;;;;;;2.76;93.03;97479.00;1926771;84;20473;-77
2021/11/28 16:11:06;;;;;;;3.28;3.06;;;;;;;2.73;93.16;97481.59;1928392;84;20378;-78
2021/11/28 16:14:37;;;;;;;3.16;2.96;;;;;;;2.72;93.26;97482.44;1928221;84;20468;-78
2021/11/28 16:18:18;;;;;;;3.51;3.21;;;;;;;2.68;93.43;97479.03;1926699;84;20349;-78
2021/11/28 16:22:05;;;;;;;3.55;3.25;;;;;;;2.66;93.75;97483.31;1927062;84;20479;-78
2021/11/28 16:25:17;;;;;;;3.70;3.35;;;;;;;2.64;93.71;97490.16;1929610;84;20348;-78
2021/11/28 16:28:33;;;;;;;3.72;3.42;;;;;;;2.64;93.75;97492.72;1917493;84;20391;-75
2021/11/28 16:31:37;;;;;;;4.97;3.31;;;;;;;2.63;93.93;97496.13;1913774;82;20711;-75
2021/11/28 16:34:40;;;;;;;4.09;3.44;;;;;;;2.64;94.04;97502.13;1915857;84;20430;-75
2021/11/28 16:37:42;;;;;;;5.39;3.60;;;;;;;2.65;93.97;97501.25;1915791;84;20368;-75
2021/11/28 16:40:45;;;;;;;4.41;4.01;;;;;;;2.62;93.99;97502.13;1920652;84;20354;-75
2021/11/28 16:43:48;;;;;;;4.55;4.15;;;;;;;2.60;94.04;97513.22;1920811;84;20911;-75
2021/11/28 16:46:50;;;;;;;4.10;3.78;;;;;;;2.60;94.24;97506.41;1919287;82;24767;-75
2021/11/28 16:49:53;;;;;;;4.21;3.91;;;;;;;2.60;94.11;97510.66;1921847;84;20362;-76
2021/11/28 16:52:57;;;;;;;4.49;4.09;;;;;;;2.58;94.15;97510.69;1921454;84;21164;-75
2021/11/28 16:56:00;;;;;;;4.84;4.39;;;;;;;2.55;94.13;97515.81;1921752;84;20366;-75
2021/11/28 16:59:03;;;;;;;4.68;4.28;;;;;;;2.54;94.33;97519.25;1924473;84;20832;-75
2021/11/28 17:02:18;;;;;;;5.64;4.03;;;;;;;2.55;94.34;97520.94;1926612;82;22862;-79
2021/11/28 17:05:35;;;;;;;4.20;3.80;;;;;;;2.55;94.44;97528.63;1928662;84;20475;-78
2021/11/28 17:09:04;;;;;;;4.38;3.97;;;;;;;2.52;94.33;97525.22;1927527;84;20991;-78
2021/11/28 17:12:18;;;;;;;4.05;3.75;;;;;;;2.49;94.44;97528.63;1924998;84;20325;-78
2021/11/28 17:15:33;;;;;;;4.27;3.87;;;;;;;2.44;94.51;97532.91;1918780;84;20399;-78
2021/11/28 17:18:51;;;;;;;4.88;4.03;;;;;;;2.45;94.65;97541.44;1918655;84;20201;-78
2021/11/28 17:22:18;;;;;;;4.65;4.11;;;;;;;2.42;94.78;97543.16;1918778;84;20375;-78
2021/11/28 17:25:36;;;;;;;5.40;4.35;;;;;;;2.43;94.69;97551.69;1906815;85;20743;-79
2021/11/28 17:29:03;;;;;;;4.74;4.32;;;;;;;2.44;94.82;97553.41;1894378;85;20472;-79
2021/11/28 17:32:30;;;;;;;4.66;4.22;;;;;;;2.43;94.87;97561.94;1892154;86;20500;-78
2021/11/28 17:35:51;;;;;;;4.28;3.94;;;;;;;2.43;94.86;97567.06;1896766;85;20361;-78
2021/11/28 17:39:12;;;;;;;4.36;3.96;;;;;;;2.40;94.81;97572.19;1892697;86;20388;-78
2021/11/28 17:42:21;;;;;;;4.78;4.28;;;;;;;2.38;94.94;97573.91;1892325;86;20217;-79
2021/11/28 17:46:07;;;;;;;4.69;3.92;;;;;;;2.39;95.05;97570.50;1927338;73;216938;-77
2021/11/28 17:49:26;;;;;;;8.42;4.37;;;;;;;2.37;94.96;97573.06;1927385;84;20220;-77
2021/11/28 17:52:31;;;;;;;5.70;5.10;;;;;;;2.33;94.89;97570.47;1928492;84;20209;-77
2021/11/28 17:55:39;;;;;;;5.15;4.44;;;;;;;2.33;95.18;97573.88;1928019;84;20333;-77
2021/11/28 17:58:44;;;;;;;4.88;4.31;;;;;;;2.30;94.99;97575.59;1923793;84;20370;-76
2021/11/28 18:01:47;;;;;;;5.94;5.34;;;;;;;2.27;95.10;97585.88;1929468;84;20199;-76
2021/11/28 18:04:58;;;;;;;5.41;4.85;;;;;;;2.26;95.18;97590.13;1927857;84;20918;-78
2021/11/28 18:08:15;;;;;;;6.36;4.78;;;;;;;2.22;95.06;97591.00;1927412;84;20333;-78
2021/11/28 18:11:34;;;;;;;6.46;4.53;;;;;;;2.22;95.19;97591.00;1921805;84;21027;-78
2021/11/28 18:14:40;;;;;;;5.40;4.53;;;;;;;2.22;95.32;97598.69;1928315;84;20382;-78
2021/11/28 18:18:02;;;;;;;4.61;4.10;;;;;;;2.22;95.38;97598.69;1914600;84;941141;-78
2021/11/28 18:21:17;;;;;;;4.64;4.20;;;;;;;2.25;95.28;97600.38;1927802;84;20191;-78
2021/11/28 18:24:24;;;;;;;4.72;3.95;;;;;;;2.22;95.17;97603.78;1928043;84;20922;-78
2021/11/28 18:27:40;;;;;;;4.16;3.78;;;;;;;2.21;95.13;97614.91;1926079;84;21172;-78
2021/11/28 18:30:52;;;;;;;4.31;3.95;;;;;;;2.19;95.17;97618.31;1916620;84;984614;-78
2021/11/28 18:33:59;;;;;;;3.75;3.45;;;;;;;2.21;95.31;97616.59;1927874;84;20365;-78
2021/11/28 18:37:14;;;;;;;4.22;3.90;;;;;;;2.22;95.21;97623.44;1928329;84;20920;-78
2021/11/28 18:40:35;;;;;;;3.71;3.35;;;;;;;2.22;95.26;97633.66;1927736;84;20403;-78
2021/11/28 18:43:48;;;;;;;4.25;3.45;;;;;;;2.23;95.36;97633.66;1929663;84;20399;-78
2021/11/28 18:47:02;;;;;;;3.58;3.28;;;;;;;2.24;95.23;97643.06;1928382;84;20473;-78
2021/11/28 18:50:12;;;;;;;2.99;2.71;;;;;;;2.26;95.22;97641.34;1924302;84;20344;-80
2021/11/28 18:53:15;;;;;;;2.95;2.64;;;;;;;2.24;95.11;97645.59;1941412;73;21185;-76
2021/11/28 18:56:50;;;;;;;3.40;3.10;;;;;;;2.20;95.10;97648.19;1926479;84;20319;-78
2021/11/28 19:00:15;;;;;;;3.49;3.01;;;;;;;2.17;95.42;97643.91;1906375;85;20382;-79
2021/11/28 19:03:33;;;;;;;3.26;2.59;;;;;;;2.19;95.40;97647.31;1911532;85;20481;-79
2021/11/28 19:06:54;;;;;;;2.45;2.28;;;;;;;2.19;95.36;97652.44;1918080;84;20482;-79
2021/11/28 19:10:21;;;;;;;2.90;2.36;;;;;;;2.21;95.38;97652.44;1911809;84;20636;-78
2021/11/28 19:13:45;;;;;;;2.94;2.69;;;;;;;2.21;95.20;97650.72;1920256;84;20972;-79
2021/11/28 19:17:12;;;;;;;3.11;2.46;;;;;;;2.20;95.24;97663.53;1919873;84;20339;-78